createdAt,value
2023-02-16T00:01:30.679Z,3.09
2023-02-16T00:04:16.991Z,3.23
2023-02-16T00:06:45.178Z,3.20
2023-02-16T00:09:13.189Z,3.12
2023-02-16T00:11:59.555Z,3.13
2023-02-16T00:14:28.520Z,3.09
2023-02-16T00:16:58.777Z,3.08
2023-02-16T00:19:39.131Z,3.09
2023-02-16T00:22:07.880Z,3.05
2023-02-16T00:24:35.765Z,3.05
2023-02-16T00:27:04.059Z,2.83
2023-02-16T00:29:36.958Z,3.08
2023-02-16T00:32:06.195Z,3.03
2023-02-16T00:34:36.386Z,2.94
2023-02-16T00:37:06.761Z,2.95
2023-02-16T00:39:34.862Z,2.89
2023-02-16T00:42:06.245Z,2.86
2023-02-16T00:44:46.852Z,2.70
2023-02-16T00:47:30.226Z,2.73
2023-02-16T00:49:58.756Z,2.60
2023-02-16T00:52:37.654Z,2.63
2023-02-16T00:55:09.322Z,2.65
2023-02-16T00:58:05.133Z,2.63
2023-02-16T01:00:40.549Z,2.51
2023-02-16T01:03:21.547Z,2.56
2023-02-16T01:06:11.931Z,2.57
2023-02-16T01:08:59.785Z,2.54
2023-02-16T01:11:28.662Z,2.56
2023-02-16T01:13:57.141Z,2.57
2023-02-16T01:16:46.627Z,2.51
2023-02-16T01:19:19.019Z,2.61
2023-02-16T01:21:50.658Z,2.53
2023-02-16T01:24:23.453Z,2.46
2023-02-16T01:26:53.308Z,2.56
2023-02-16T01:29:28.979Z,2.46
2023-02-16T01:31:58.131Z,2.53
2023-02-16T01:34:28.332Z,2.40
2023-02-16T01:37:02.374Z,2.44
2023-02-16T01:39:35.492Z,2.42
2023-02-16T01:42:16.650Z,2.34
2023-02-16T01:44:50.993Z,2.31
2023-02-16T01:47:28.607Z,2.36
2023-02-16T01:49:57.117Z,2.39
2023-02-16T01:52:38.530Z,2.41
2023-02-16T01:55:31.553Z,2.42
2023-02-16T01:58:55.815Z,2.40
2023-02-16T02:01:40.306Z,2.35
2023-02-16T02:04:41.851Z,2.39
2023-02-16T02:07:26.616Z,2.36
2023-02-16T02:10:11.726Z,2.31
2023-02-16T02:12:57.119Z,2.26
2023-02-16T02:15:34.500Z,2.20
2023-02-16T02:18:33.419Z,2.15
2023-02-16T02:22:19.242Z,2.20
2023-02-16T02:24:58.967Z,2.20
2023-02-16T02:28:10.048Z,2.24
2023-02-16T02:31:04.662Z,2.19
2023-02-16T02:34:12.786Z,2.19
2023-02-16T02:37:39.383Z,2.27
2023-02-16T02:40:46.862Z,2.27
2023-02-16T02:43:34.951Z,2.24
2023-02-16T02:46:16.349Z,2.15
2023-02-16T02:48:48.794Z,2.28
2023-02-16T02:51:31.381Z,2.20
2023-02-16T02:54:36.770Z,2.17
2023-02-16T02:57:55.053Z,2.23
2023-02-16T03:00:47.425Z,2.06
2023-02-16T03:03:40.056Z,2.21
2023-02-16T03:06:22.958Z,2.27
2023-02-16T03:09:15.646Z,2.25
2023-02-16T03:12:06.460Z,2.27
2023-02-16T03:14:40.496Z,2.19
2023-02-16T03:17:34.396Z,2.16
2023-02-16T03:20:47.896Z,2.12
2023-02-16T03:23:34.910Z,2.07
2023-02-16T03:26:22.466Z,2.08
2023-02-16T03:29:11.299Z,1.94
2023-02-16T03:31:45.552Z,1.94
2023-02-16T03:34:16.789Z,1.91
2023-02-16T03:36:54.183Z,2.01
2023-02-16T03:39:22.253Z,1.92
2023-02-16T03:41:55.297Z,2.04
2023-02-16T03:44:36.418Z,2.05
2023-02-16T03:47:12.397Z,1.96
2023-02-16T03:49:44.418Z,2.00
2023-02-16T03:52:33.290Z,2.01
2023-02-16T03:55:03.456Z,1.69
2023-02-16T03:57:34.178Z,1.66
2023-02-16T04:00:21.000Z,1.76
2023-02-16T04:02:50.982Z,1.78
2023-02-16T04:05:18.883Z,1.80
2023-02-16T04:07:49.858Z,1.80
2023-02-16T04:10:21.192Z,1.90
2023-02-16T04:12:59.896Z,1.91
2023-02-16T04:15:31.338Z,1.91
2023-02-16T04:18:03.164Z,1.90
2023-02-16T04:20:34.143Z,1.96
2023-02-16T04:23:08.148Z,1.99
2023-02-16T04:25:36.771Z,1.80
2023-02-16T04:28:06.795Z,1.91
2023-02-16T04:30:35.137Z,1.87
2023-02-16T04:33:05.697Z,1.94
2023-02-16T04:35:44.561Z,1.88
2023-02-16T04:38:27.391Z,1.96
2023-02-16T04:40:57.423Z,2.00
2023-02-16T04:43:27.464Z,2.02
2023-02-16T04:45:55.893Z,1.98
2023-02-16T04:48:32.333Z,2.09
2023-02-16T04:51:09.901Z,2.11
2023-02-16T04:53:43.077Z,2.11
2023-02-16T04:56:17.335Z,1.94
2023-02-16T04:58:50.737Z,1.89
2023-02-16T05:01:26.239Z,1.87
2023-02-16T05:04:02.681Z,1.92
2023-02-16T05:06:37.082Z,1.54
2023-02-16T05:09:12.038Z,1.71
2023-02-16T05:12:03.047Z,1.75
2023-02-16T05:14:43.662Z,1.75
2023-02-16T05:17:24.364Z,1.81
2023-02-16T05:20:02.909Z,1.76
2023-02-16T05:22:40.972Z,1.72
2023-02-16T05:25:22.006Z,1.63
2023-02-16T05:27:58.744Z,1.80
2023-02-16T05:30:29.597Z,1.55
2023-02-16T05:33:11.543Z,1.70
2023-02-16T05:35:39.609Z,1.72
2023-02-16T05:38:12.413Z,1.75
2023-02-16T05:40:42.095Z,1.57
2023-02-16T05:43:10.251Z,1.70
2023-02-16T05:45:41.581Z,1.90
2023-02-16T05:48:11.652Z,1.80
2023-02-16T05:50:40.546Z,1.91
2023-02-16T05:53:12.357Z,1.97
2023-02-16T05:55:50.709Z,1.90
2023-02-16T05:58:21.491Z,1.90
2023-02-16T06:00:54.806Z,1.88
2023-02-16T06:03:23.226Z,2.18
2023-02-16T06:05:59.085Z,2.21
2023-02-16T06:08:28.281Z,2.18
2023-02-16T06:11:00.403Z,2.08
2023-02-16T06:13:29.485Z,2.25
2023-02-16T06:16:17.841Z,2.31
2023-02-16T06:19:01.047Z,2.64
2023-02-16T06:21:34.834Z,3.16
2023-02-16T06:24:22.435Z,4.53
2023-02-16T06:26:54.060Z,6.17
2023-02-16T06:29:23.055Z,7.48
2023-02-16T06:31:57.151Z,8.16
2023-02-16T06:34:34.091Z,9.64
2023-02-16T06:37:09.105Z,10.59
2023-02-16T06:39:36.491Z,10.86
2023-02-16T06:42:04.354Z,11.62
2023-02-16T06:44:33.390Z,12.11
2023-02-16T06:47:03.355Z,12.30
2023-02-16T06:49:30.695Z,12.79
2023-02-16T06:52:01.942Z,13.11
2023-02-16T06:54:30.638Z,13.19
2023-02-16T06:56:58.618Z,13.45
2023-02-16T06:59:29.042Z,13.16
2023-02-16T07:02:00.974Z,14.09
2023-02-16T07:04:32.962Z,12.79
2023-02-16T07:07:15.289Z,12.78
2023-02-16T07:10:09.362Z,13.42
2023-02-16T07:13:03.753Z,13.73
2023-02-16T07:15:38.403Z,12.96
2023-02-16T07:18:08.045Z,12.80
2023-02-16T07:20:36.482Z,13.22
2023-02-16T07:23:13.199Z,12.82
2023-02-16T07:25:43.034Z,13.25
2023-02-16T07:28:28.268Z,13.55
2023-02-16T07:30:57.090Z,13.11
2023-02-16T07:33:47.816Z,13.20
2023-02-16T07:36:17.198Z,13.85
2023-02-16T07:38:48.656Z,14.47
2023-02-16T07:41:21.392Z,14.71
2023-02-16T07:44:20.080Z,14.49
2023-02-16T07:46:51.531Z,14.73
2023-02-16T07:49:23.056Z,15.49
2023-02-16T07:51:56.421Z,14.78
2023-02-16T07:54:25.395Z,12.62
2023-02-16T07:56:54.311Z,12.77
2023-02-16T07:59:25.289Z,12.02
2023-02-16T08:01:53.081Z,12.50
2023-02-16T08:04:23.466Z,13.71
2023-02-16T08:06:53.504Z,13.48
2023-02-16T08:09:26.549Z,13.29
2023-02-16T08:11:58.088Z,13.47
2023-02-16T08:14:27.017Z,14.11
2023-02-16T08:16:56.814Z,14.44
2023-02-16T08:19:27.510Z,15.61
2023-02-16T08:21:56.613Z,15.71
2023-02-16T08:24:25.213Z,16.07
2023-02-16T08:27:06.425Z,16.47
2023-02-16T08:29:33.863Z,16.75
2023-02-16T08:32:07.784Z,17.59
2023-02-16T08:34:36.256Z,16.00
2023-02-16T08:37:05.335Z,16.57
2023-02-16T08:39:33.774Z,16.45
2023-02-16T08:44:43.533Z,16.20
2023-02-16T08:47:17.021Z,15.88
2023-02-16T08:49:48.506Z,16.60
2023-02-16T08:52:17.207Z,17.03
2023-02-16T08:54:47.194Z,16.71
2023-02-16T08:57:21.297Z,17.02
2023-02-16T09:00:15.321Z,16.56
2023-02-16T09:02:47.890Z,17.29
2023-02-16T09:05:23.866Z,17.00
2023-02-16T09:07:58.800Z,17.75
2023-02-16T09:10:32.356Z,16.54
2023-02-16T09:13:16.363Z,16.13
2023-02-16T09:19:23.002Z,15.33
2023-02-16T09:21:56.994Z,15.24
2023-02-16T09:24:33.060Z,14.89
2023-02-16T09:27:04.686Z,14.25
2023-02-16T09:29:38.058Z,14.21
2023-02-16T09:33:20.008Z,15.47
2023-02-16T09:35:57.807Z,16.35
2023-02-16T09:38:29.957Z,16.50
2023-02-16T09:41:01.324Z,16.53
2023-02-16T09:43:55.642Z,16.68
2023-02-16T09:46:28.493Z,16.81
2023-02-16T09:49:35.931Z,16.74
2023-02-16T09:52:29.673Z,16.78
2023-02-16T09:55:03.178Z,16.88
2023-02-16T09:57:59.965Z,16.25
2023-02-16T10:00:39.521Z,17.31
2023-02-16T10:03:45.977Z,17.23
2023-02-16T10:07:08.934Z,17.75
2023-02-16T10:09:39.242Z,17.78
2023-02-16T10:12:19.592Z,17.39
2023-02-16T10:15:03.446Z,17.03
2023-02-16T10:17:39.201Z,16.72
2023-02-16T10:20:30.794Z,15.65
2023-02-16T10:23:09.046Z,15.87
2023-02-16T10:26:08.307Z,15.29
2023-02-16T10:28:48.829Z,15.16
2023-02-16T10:31:39.114Z,15.72
2023-02-16T10:34:13.794Z,15.82
2023-02-16T10:37:05.050Z,16.00
2023-02-16T10:40:24.986Z,16.30
2023-02-16T10:43:14.670Z,16.97
2023-02-16T10:45:52.543Z,17.50
2023-02-16T10:48:23.786Z,17.19
2023-02-16T10:51:06.784Z,16.28
2023-02-16T10:54:13.533Z,16.46
2023-02-16T10:57:04.475Z,16.36
2023-02-16T10:59:44.526Z,16.56
2023-02-16T11:02:24.452Z,17.41
2023-02-16T11:04:54.493Z,17.73
2023-02-16T11:07:24.671Z,17.58
2023-02-16T11:09:56.054Z,16.91
2023-02-16T11:12:43.010Z,17.02
2023-02-16T11:15:21.417Z,17.63
2023-02-16T11:18:31.821Z,17.48
2023-02-16T11:21:13.395Z,18.25
2023-02-16T11:23:48.548Z,18.13
2023-02-16T11:26:31.884Z,17.58
2023-02-16T11:29:22.994Z,17.72
2023-02-16T11:31:52.723Z,17.77
2023-02-16T11:34:37.477Z,18.01
2023-02-16T11:37:22.951Z,17.31
2023-02-16T11:39:57.036Z,16.32
2023-02-16T11:42:27.765Z,15.89
2023-02-16T11:45:04.063Z,17.22
2023-02-16T11:47:54.044Z,17.77
2023-02-16T11:50:29.988Z,17.25
2023-02-16T11:53:13.661Z,17.89
2023-02-16T11:55:48.290Z,17.13
2023-02-16T11:58:29.826Z,17.28
2023-02-16T12:01:29.425Z,17.72
2023-02-16T12:07:50.199Z,18.69
2023-02-16T12:11:10.587Z,17.66
2023-02-16T12:14:05.565Z,17.58
2023-02-16T12:16:47.501Z,18.12
2023-02-16T12:19:41.809Z,17.54
2023-02-16T12:22:29.296Z,17.20
2023-02-16T12:25:33.771Z,16.71
2023-02-16T12:28:37.472Z,17.92
2023-02-16T12:31:22.940Z,16.35
2023-02-16T12:37:20.255Z,15.82
2023-02-16T12:40:31.312Z,15.59
2023-02-16T12:43:43.552Z,15.79
2023-02-16T12:46:28.300Z,15.41
2023-02-16T12:49:22.841Z,16.13
2023-02-16T12:52:00.102Z,16.60
2023-02-16T12:54:39.446Z,16.62
2023-02-16T12:57:15.250Z,17.37
2023-02-16T13:00:31.885Z,17.19
2023-02-16T13:03:39.984Z,17.25
2023-02-16T13:06:21.301Z,16.95
2023-02-16T13:08:49.549Z,16.92
2023-02-16T13:11:32.971Z,17.04
2023-02-16T13:14:14.829Z,17.27
2023-02-16T13:20:23.321Z,16.16
2023-02-16T13:23:17.195Z,17.00
2023-02-16T13:26:11.243Z,16.96
2023-02-16T13:28:49.991Z,16.81
2023-02-16T13:31:41.316Z,18.55
2023-02-16T13:34:41.431Z,16.19
2023-02-16T13:37:26.399Z,16.05
2023-02-16T13:40:06.282Z,15.83
2023-02-16T13:43:19.728Z,16.32
2023-02-16T13:45:55.546Z,16.67
2023-02-16T13:48:33.839Z,16.78
2023-02-16T13:51:05.109Z,17.15
2023-02-16T13:53:38.864Z,16.18
2023-02-16T13:56:22.991Z,16.14
2023-02-16T13:58:52.977Z,16.50
2023-02-16T14:01:43.786Z,16.99
2023-02-16T14:04:23.828Z,17.07
2023-02-16T14:07:20.171Z,16.55
2023-02-16T14:09:51.346Z,16.71
2023-02-16T14:12:22.726Z,17.00
2023-02-16T14:14:54.499Z,17.00
2023-02-16T14:17:21.914Z,17.16
2023-02-16T14:20:06.242Z,17.21
2023-02-16T14:23:00.317Z,17.01
2023-02-16T14:25:31.568Z,16.63
2023-02-16T14:28:31.944Z,16.64
2023-02-16T14:31:04.195Z,16.53
2023-02-16T14:33:46.397Z,15.91
2023-02-16T14:36:17.799Z,16.35
2023-02-16T14:38:52.189Z,16.28
2023-02-16T14:41:35.724Z,16.33
2023-02-16T14:44:06.163Z,16.39
2023-02-16T14:46:50.053Z,15.64
2023-02-16T14:49:38.436Z,15.69
2023-02-16T14:52:36.146Z,15.85
2023-02-16T14:55:53.742Z,15.87
2023-02-16T14:58:30.501Z,16.01
2023-02-16T15:01:12.989Z,15.90
2023-02-16T15:03:50.540Z,15.68
2023-02-16T15:06:31.381Z,15.34
2023-02-16T15:09:06.853Z,14.74
2023-02-16T15:11:56.972Z,14.64
2023-02-16T15:14:31.746Z,14.97
2023-02-16T15:17:00.570Z,14.80
2023-02-16T15:19:32.867Z,14.76
2023-02-16T15:22:23.938Z,14.95
2023-02-16T15:25:22.504Z,14.94
2023-02-16T15:28:01.996Z,14.88
2023-02-16T15:30:35.426Z,14.55
2023-02-16T15:33:09.296Z,14.25
2023-02-16T15:35:44.495Z,13.91
2023-02-16T15:38:15.115Z,13.81
2023-02-16T15:40:45.521Z,13.85
2023-02-16T15:43:16.622Z,13.67
2023-02-16T15:45:49.174Z,13.31
2023-02-16T15:48:25.070Z,13.09
2023-02-16T15:51:01.820Z,12.91
2023-02-16T15:53:37.374Z,12.72
2023-02-16T15:56:29.929Z,12.32
2023-02-16T15:59:02.123Z,12.00
2023-02-16T16:01:35.423Z,11.75
2023-02-16T16:04:20.884Z,11.51
2023-02-16T16:06:51.938Z,11.33
2023-02-16T16:09:35.613Z,11.15
2023-02-16T16:12:11.224Z,11.13
2023-02-16T16:14:47.607Z,10.92
2023-02-16T16:17:19.492Z,10.68
2023-02-16T16:19:47.399Z,10.58
2023-02-16T16:22:40.064Z,10.55
2023-02-16T16:25:38.024Z,10.48
2023-02-16T16:28:08.825Z,10.21
2023-02-16T16:30:43.948Z,10.29
2023-02-16T16:33:14.110Z,10.18
2023-02-16T16:35:51.775Z,9.92
2023-02-16T16:38:26.408Z,9.90
2023-02-16T16:40:56.335Z,9.86
2023-02-16T16:43:32.575Z,9.42
2023-02-16T16:46:27.951Z,9.50
2023-02-16T16:49:00.896Z,9.26
2023-02-16T16:51:40.494Z,9.17
2023-02-16T16:54:33.385Z,9.07
2023-02-16T16:57:24.453Z,9.06
2023-02-16T16:59:53.644Z,9.05
2023-02-16T17:02:21.924Z,8.97
2023-02-16T17:04:50.209Z,8.73
2023-02-16T17:07:20.749Z,8.70
2023-02-16T17:09:49.777Z,8.84
2023-02-16T17:12:21.822Z,8.81
2023-02-16T17:14:58.373Z,8.47
2023-02-16T17:17:35.000Z,8.38
2023-02-16T17:20:02.491Z,8.39
2023-02-16T17:22:37.481Z,8.32
2023-02-16T17:25:05.149Z,8.18
2023-02-16T17:27:32.663Z,8.12
2023-02-16T17:29:59.938Z,8.06
2023-02-16T17:32:28.297Z,8.02
2023-02-16T17:34:55.562Z,7.99
2023-02-16T17:37:23.210Z,7.99
2023-02-16T17:39:51.292Z,7.90
2023-02-16T17:42:20.964Z,7.83
2023-02-16T17:44:54.523Z,7.59
2023-02-16T17:47:22.724Z,7.64
2023-02-16T17:49:52.946Z,7.53
2023-02-16T17:52:30.065Z,7.49
2023-02-16T17:54:58.021Z,7.37
2023-02-16T17:57:26.343Z,7.47
2023-02-16T17:59:54.240Z,7.47
2023-02-16T18:02:22.386Z,7.51
2023-02-16T18:04:51.221Z,7.45
2023-02-16T18:07:20.208Z,7.51
2023-02-16T18:09:49.286Z,7.36
2023-02-16T18:12:16.977Z,7.35
2023-02-16T18:14:45.335Z,7.29
2023-02-16T18:17:15.140Z,7.29
2023-02-16T18:19:42.360Z,7.15
2023-02-16T18:22:10.146Z,7.16
2023-02-16T18:24:37.456Z,7.10
2023-02-16T18:27:06.872Z,7.02
2023-02-16T18:29:34.163Z,6.98
2023-02-16T18:32:03.454Z,7.08
2023-02-16T18:34:32.600Z,6.99
2023-02-16T18:37:00.132Z,6.95
2023-02-16T18:39:27.348Z,6.89
2023-02-16T18:41:55.450Z,6.95
2023-02-16T18:44:22.878Z,6.82
2023-02-16T18:46:50.485Z,6.87
2023-02-16T18:49:17.908Z,6.89
2023-02-16T18:51:46.560Z,6.94
2023-02-16T18:54:13.809Z,6.83
2023-02-16T18:56:41.439Z,6.74
2023-02-16T18:59:08.781Z,6.65
2023-02-16T19:01:36.822Z,6.70
2023-02-16T19:04:06.194Z,6.68
2023-02-16T19:06:34.523Z,6.63
2023-02-16T19:09:01.757Z,6.61
2023-02-16T19:11:30.922Z,6.63
2023-02-16T19:13:58.374Z,6.63
2023-02-16T19:16:27.345Z,6.60
2023-02-16T19:18:55.919Z,6.55
2023-02-16T19:21:23.425Z,6.53
2023-02-16T19:23:51.864Z,6.54
2023-02-16T19:26:20.180Z,6.52
2023-02-16T19:28:47.671Z,6.50
2023-02-16T19:31:19.704Z,6.48
2023-02-16T19:33:47.271Z,6.54
2023-02-16T19:36:15.527Z,6.61
2023-02-16T19:38:43.793Z,6.76
2023-02-16T19:41:18.662Z,6.78
2023-02-16T19:43:47.884Z,6.68
2023-02-16T19:46:16.299Z,6.80
2023-02-16T19:48:46.053Z,6.76
2023-02-16T19:51:14.247Z,6.79
2023-02-16T19:53:42.708Z,6.78
2023-02-16T19:56:14.882Z,6.77
2023-02-16T19:58:42.580Z,6.74
2023-02-16T20:01:13.835Z,6.70
2023-02-16T20:03:41.524Z,6.84
2023-02-16T20:06:17.601Z,6.82
2023-02-16T20:08:46.164Z,6.71
2023-02-16T20:11:14.869Z,6.66
2023-02-16T20:13:42.586Z,6.60
2023-02-16T20:16:12.006Z,6.44
2023-02-16T20:18:40.648Z,6.58
2023-02-16T20:21:19.734Z,6.54
2023-02-16T20:23:48.007Z,6.51
2023-02-16T20:26:26.875Z,6.52
2023-02-16T20:28:56.205Z,6.44
2023-02-16T20:31:30.248Z,6.39
2023-02-16T20:33:58.318Z,6.33
2023-02-16T20:36:25.899Z,6.16
2023-02-16T20:38:54.059Z,6.19
2023-02-16T20:41:22.342Z,6.11
2023-02-16T20:43:53.716Z,6.06
2023-02-16T20:46:24.038Z,6.07
2023-02-16T20:48:51.892Z,6.06
2023-02-16T20:51:21.051Z,6.02
2023-02-16T20:53:49.089Z,6.05
2023-02-16T20:56:21.770Z,6.09
2023-02-16T20:58:52.824Z,6.06
2023-02-16T21:01:37.307Z,5.97
2023-02-16T21:04:08.038Z,5.87
2023-02-16T21:06:37.029Z,5.72
2023-02-16T21:09:08.919Z,5.81
2023-02-16T21:11:37.750Z,5.80
2023-02-16T21:14:06.565Z,5.78
2023-02-16T21:16:34.519Z,5.62
2023-02-16T21:19:02.906Z,5.62
2023-02-16T21:21:33.118Z,5.57
2023-02-16T21:24:00.668Z,5.47
2023-02-16T21:26:28.222Z,5.57
2023-02-16T21:28:57.320Z,5.50
2023-02-16T21:31:25.825Z,5.44
2023-02-16T21:33:54.131Z,5.37
2023-02-16T21:36:24.099Z,5.37
2023-02-16T21:38:51.595Z,5.36
2023-02-16T21:41:25.652Z,5.33
2023-02-16T21:44:12.816Z,5.28
2023-02-16T21:46:44.030Z,5.33
2023-02-16T21:49:19.686Z,5.27
2023-02-16T21:52:12.286Z,5.23
2023-02-16T21:55:01.469Z,5.14
2023-02-16T21:57:32.108Z,5.15
2023-02-16T21:59:59.621Z,5.12
2023-02-16T22:02:27.497Z,5.07
2023-02-16T22:04:56.389Z,5.15
2023-02-16T22:07:23.862Z,5.22
2023-02-16T22:09:51.196Z,5.04
2023-02-16T22:12:19.879Z,5.09
2023-02-16T22:14:47.594Z,4.98
2023-02-16T22:17:15.414Z,5.02
2023-02-16T22:19:42.759Z,4.93
2023-02-16T22:22:11.283Z,4.99
2023-02-16T22:24:39.361Z,4.98
2023-02-16T22:27:07.196Z,4.95
2023-02-16T22:29:34.480Z,4.98
2023-02-16T22:32:02.062Z,5.00
2023-02-16T22:34:30.883Z,4.92
2023-02-16T22:36:58.408Z,4.99
2023-02-16T22:39:25.797Z,4.89
2023-02-16T22:41:54.791Z,4.88
2023-02-16T22:44:24.081Z,4.77
2023-02-16T22:46:51.839Z,4.77
2023-02-16T22:49:22.540Z,4.74
2023-02-16T22:51:51.428Z,4.70
2023-02-16T22:54:18.830Z,4.66
2023-02-16T22:56:46.845Z,4.59
2023-02-16T22:59:14.135Z,4.61
2023-02-16T23:01:42.063Z,4.53
2023-02-16T23:04:16.561Z,4.66
2023-02-16T23:06:47.466Z,4.63
2023-02-16T23:09:20.201Z,4.62
2023-02-16T23:11:49.017Z,4.54
2023-02-16T23:14:17.688Z,4.54
2023-02-16T23:16:47.331Z,4.57
2023-02-16T23:19:17.594Z,4.51
2023-02-16T23:21:45.616Z,4.62
2023-02-16T23:24:20.125Z,4.43
2023-02-16T23:26:48.158Z,4.62
2023-02-16T23:29:16.719Z,4.69
2023-02-16T23:31:47.387Z,4.69
2023-02-16T23:34:19.152Z,4.48
2023-02-16T23:36:47.046Z,4.63
2023-02-16T23:39:18.286Z,4.63
2023-02-16T23:41:47.731Z,4.61
2023-02-16T23:44:18.063Z,4.52
2023-02-16T23:46:50.113Z,4.48
2023-02-16T23:49:17.626Z,4.37
2023-02-16T23:51:47.073Z,4.44
2023-02-16T23:54:14.530Z,4.39
2023-02-16T23:56:44.689Z,4.35
2023-02-16T23:59:14.214Z,4.29
